Time;durP1;ratioP1;P1;durP2;ratioP2;P2;SDS_P1;SDS_P2;PMS_P1;PMS_P2;Temp;Humidity;BMP_temperature;BMP_pressure;BME280_temperature;BME280_humidity;BME280_pressure;Samples;Min_cycle;Max_cycle;Signal;HPM_P1;HPM_P2
2022/05/15 00:02:21;;;;;;;11.10;3.20;;;15.70;62.20;;;;;;5093688;28;20442;-30
2022/05/15 00:04:47;;;;;;;10.05;3.25;;;15.70;62.20;;;;;;5093761;28;20040;-31
2022/05/15 00:07:13;;;;;;;11.23;3.13;;;15.70;62.20;;;;;;5093834;28;20432;-31
2022/05/15 00:09:39;;;;;;;14.55;3.72;;;15.70;62.20;;;;;;5093729;28;20036;-29
2022/05/15 00:12:06;;;;;;;16.90;3.83;;;15.70;62.20;;;;;;5093090;28;20125;-28
2022/05/15 00:14:33;;;;;;;13.10;3.20;;;15.70;62.20;;;;;;5093724;28;20055;-28
2022/05/15 00:16:59;;;;;;;12.27;3.30;;;15.70;62.30;;;;;;5093675;28;20035;-28
2022/05/15 00:19:25;;;;;;;11.95;3.20;;;15.60;62.20;;;;;;5093619;28;20395;-29
2022/05/15 00:21:50;;;;;;;12.98;3.65;;;15.60;62.20;;;;;;5093611;28;20082;-32
2022/05/15 00:24:16;;;;;;;15.48;3.53;;;15.70;62.30;;;;;;5094008;28;20021;-30
2022/05/15 00:26:42;;;;;;;13.77;3.33;;;15.70;62.30;;;;;;5093735;28;20145;-34
2022/05/15 00:29:07;;;;;;;10.75;3.33;;;15.60;62.30;;;;;;5092435;28;20063;-28
2022/05/15 00:31:33;;;;;;;10.82;3.50;;;15.60;62.30;;;;;;5093445;28;20028;-30
2022/05/15 00:33:59;;;;;;;12.77;3.15;;;15.60;62.30;;;;;;5093285;28;20062;-33
2022/05/15 00:36:25;;;;;;;13.73;3.30;;;15.60;62.30;;;;;;5093446;28;20063;-31
2022/05/15 00:38:50;;;;;;;14.02;3.85;;;15.60;62.30;;;;;;5093390;28;20152;-31
2022/05/15 00:41:16;;;;;;;11.75;3.25;;;15.50;62.30;;;;;;5093287;28;20048;-28
2022/05/15 00:43:48;;;;;;;14.68;3.53;;;15.60;62.40;;;;;;5091672;28;20028;-35
2022/05/15 00:46:32;;;;;;;12.55;3.10;;;15.50;62.40;;;;;;5093319;28;20024;-28
2022/05/15 00:49:00;;;;;;;14.25;3.35;;;15.50;62.40;;;;;;5092848;28;20034;-28
2022/05/15 00:51:44;;;;;;;12.18;3.63;;;15.50;62.40;;;;;;5093036;28;20028;-28
2022/05/15 00:54:37;;;;;;;10.10;3.15;;;15.50;62.50;;;;;;5093187;28;20035;-32
2022/05/15 00:57:26;;;;;;;10.80;2.97;;;15.50;62.60;;;;;;5092857;28;20055;-29
2022/05/15 01:00:03;;;;;;;14.63;3.28;;;15.40;62.60;;;;;;5092839;28;20028;-31
2022/05/15 01:02:34;;;;;;;12.52;3.35;;;15.40;62.60;;;;;;5092799;28;20024;-29
2022/05/15 01:05:00;;;;;;;8.70;2.95;;;15.40;62.70;;;;;;5091697;28;20032;-27
2022/05/15 01:07:26;;;;;;;12.30;3.00;;;15.40;62.80;;;;;;5092795;28;20492;-29
2022/05/15 01:09:52;;;;;;;10.77;2.80;;;15.30;62.80;;;;;;5092882;28;20035;-30
2022/05/15 01:12:18;;;;;;;12.20;3.28;;;15.30;62.80;;;;;;5092887;28;20063;-31
2022/05/15 01:14:45;;;;;;;14.57;3.53;;;15.30;62.80;;;;;;5092974;28;20484;-29
2022/05/15 01:17:11;;;;;;;11.00;3.20;;;15.30;62.90;;;;;;5092910;28;20503;-28
2022/05/15 01:19:39;;;;;;;10.65;3.13;;;15.30;63.00;;;;;;5092658;28;20032;-30
2022/05/15 01:22:08;;;;;;;12.65;3.45;;;15.30;63.00;;;;;;5092552;28;20051;-29
2022/05/15 01:24:34;;;;;;;11.13;3.22;;;15.30;63.00;;;;;;5092840;28;20476;-32
2022/05/15 01:27:04;;;;;;;12.18;3.30;;;15.30;63.00;;;;;;5092816;28;20152;-27
2022/05/15 01:29:33;;;;;;;11.25;3.08;;;15.30;63.00;;;;;;5092572;28;20526;-29
2022/05/15 01:31:59;;;;;;;10.73;2.92;;;15.30;63.00;;;;;;5091270;28;20107;-34
2022/05/15 01:34:25;;;;;;;10.52;2.88;;;15.30;62.90;;;;;;5092806;28;20031;-31
2022/05/15 01:36:52;;;;;;;11.65;3.95;;;15.20;62.80;;;;;;5092391;28;20040;-30
2022/05/15 01:39:18;;;;;;;10.30;2.90;;;15.20;62.80;;;;;;5092728;28;20043;-28
2022/05/15 01:41:44;;;;;;;10.35;3.03;;;15.20;62.80;;;;;;5092429;28;20024;-35
2022/05/15 01:44:10;;;;;;;12.40;3.30;;;15.10;62.70;;;;;;5092389;28;20526;-30
2022/05/15 01:46:36;;;;;;;10.50;3.30;;;15.10;62.80;;;;;;5092417;28;20127;-28
2022/05/15 01:49:06;;;;;;;14.45;2.97;;;15.10;62.70;;;;;;5092430;28;20032;-30
2022/05/15 01:51:33;;;;;;;12.57;3.15;;;15.10;62.80;;;;;;5092591;28;20058;-29
2022/05/15 01:54:00;;;;;;;10.60;3.10;;;15.00;62.80;;;;;;5092138;28;20024;-30
2022/05/15 01:56:25;;;;;;;12.05;3.08;;;15.00;62.80;;;;;;5091808;28;20032;-31
2022/05/15 01:58:51;;;;;;;15.95;3.58;;;15.00;62.90;;;;;;5092044;28;20143;-31
2022/05/15 02:01:17;;;;;;;11.85;3.10;;;15.00;63.00;;;;;;5092239;28;20028;-29
2022/05/15 02:03:42;;;;;;;12.75;2.80;;;15.00;63.00;;;;;;5091971;28;20032;-29
2022/05/15 02:06:08;;;;;;;11.00;2.90;;;15.00;63.00;;;;;;5092004;28;20031;-28
2022/05/15 02:08:36;;;;;;;12.57;3.17;;;14.90;63.00;;;;;;5091973;28;20086;-32
2022/05/15 02:11:01;;;;;;;10.52;3.08;;;14.90;63.10;;;;;;5092179;28;20056;-38
2022/05/15 02:13:28;;;;;;;9.40;2.55;;;14.90;63.20;;;;;;5092023;28;20033;-29
2022/05/15 02:15:54;;;;;;;9.88;2.72;;;14.90;63.20;;;;;;5091800;28;20024;-29
2022/05/15 02:18:19;;;;;;;10.25;2.72;;;14.90;63.30;;;;;;5092172;28;20093;-30
2022/05/15 02:20:45;;;;;;;14.43;3.50;;;14.90;63.40;;;;;;5092113;28;20028;-29
2022/05/15 02:23:10;;;;;;;12.65;3.17;;;14.90;63.50;;;;;;5092179;28;20085;-29
2022/05/15 02:25:37;;;;;;;10.90;2.88;;;14.80;63.50;;;;;;5092081;28;20055;-30
2022/05/15 02:28:04;;;;;;;12.77;2.70;;;14.80;63.60;;;;;;5091739;28;20035;-28
2022/05/15 02:30:29;;;;;;;9.48;2.80;;;14.80;63.60;;;;;;5092164;28;20487;-29
2022/05/15 02:32:55;;;;;;;9.63;2.75;;;14.80;63.70;;;;;;5091868;28;20031;-30
2022/05/15 02:35:21;;;;;;;12.90;2.97;;;14.80;63.80;;;;;;5093320;28;20111;-29
2022/05/15 02:37:48;;;;;;;12.32;3.10;;;14.80;63.80;;;;;;5095994;28;20016;-29
2022/05/15 02:40:16;;;;;;;10.93;3.28;;;14.80;64.00;;;;;;5095756;28;20054;-35
2022/05/15 02:42:42;;;;;;;11.07;3.03;;;14.70;64.00;;;;;;5095473;28;20337;-30
2022/05/15 02:45:08;;;;;;;13.43;3.15;;;14.70;64.10;;;;;;5095863;28;20027;-35
2022/05/15 02:47:34;;;;;;;10.23;2.80;;;14.70;64.20;;;;;;5095862;28;20042;-29
2022/05/15 02:52:44;;;;;;;8.88;2.78;;;14.70;64.30;;;;;;5095546;28;20039;-29
2022/05/15 02:55:10;;;;;;;10.93;2.60;;;14.70;64.30;;;;;;5095110;28;20036;-33
2022/05/15 02:57:41;;;;;;;9.10;2.72;;;14.70;64.50;;;;;;5094943;28;20085;-30
2022/05/15 03:00:09;;;;;;;11.45;2.85;;;14.60;64.50;;;;;;5095464;28;20436;-33
2022/05/15 03:02:36;;;;;;;9.23;2.80;;;14.60;64.60;;;;;;5095517;28;20499;-29
2022/05/15 03:05:03;;;;;;;9.55;2.65;;;14.60;64.70;;;;;;5094942;28;20028;-30
2022/05/15 03:07:28;;;;;;;11.32;3.03;;;14.60;64.70;;;;;;5095086;28;20032;-34
2022/05/15 03:09:54;;;;;;;8.13;2.47;;;14.60;64.80;;;;;;5095116;28;20081;-33
2022/05/15 03:12:19;;;;;;;9.68;2.60;;;14.50;64.80;;;;;;5095239;28;20035;-33
2022/05/15 03:14:45;;;;;;;10.32;3.05;;;14.60;64.90;;;;;;5094856;28;20020;-30
2022/05/15 03:17:11;;;;;;;12.02;2.67;;;14.60;65.00;;;;;;5095055;28;20076;-29
2022/05/15 03:19:36;;;;;;;10.40;2.83;;;14.60;65.20;;;;;;5095360;28;20104;-32
2022/05/15 03:22:02;;;;;;;13.57;3.38;;;14.50;65.20;;;;;;5094835;28;20020;-30
2022/05/15 03:24:28;;;;;;;11.80;2.83;;;14.50;65.20;;;;;;5094610;28;20027;-29
2022/05/15 03:26:53;;;;;;;13.40;3.00;;;14.50;65.30;;;;;;5094836;28;20028;-29
2022/05/15 03:29:19;;;;;;;11.18;2.60;;;14.50;65.30;;;;;;5094826;28;20094;-29
2022/05/15 03:31:46;;;;;;;10.60;2.58;;;14.50;65.40;;;;;;5094662;28;20069;-29
2022/05/15 03:34:13;;;;;;;7.45;2.55;;;14.50;65.50;;;;;;5094515;28;20016;-29
2022/05/15 03:36:41;;;;;;;13.05;2.95;;;14.40;65.50;;;;;;5094188;28;20028;-36
2022/05/15 03:39:08;;;;;;;8.13;2.50;;;14.40;65.70;;;;;;5094376;28;20107;-33
2022/05/15 03:41:35;;;;;;;7.18;2.70;;;14.40;65.80;;;;;;5094365;28;20390;-29
2022/05/15 03:44:01;;;;;;;12.70;3.53;;;14.40;65.80;;;;;;5094046;28;20077;-30
2022/05/15 03:46:26;;;;;;;11.82;3.25;;;14.40;65.90;;;;;;5093085;28;20032;-29
2022/05/15 03:48:52;;;;;;;10.85;3.00;;;14.40;65.90;;;;;;5094024;28;20494;-31
2022/05/15 03:51:18;;;;;;;11.52;3.05;;;14.30;66.00;;;;;;5094270;28;20028;-30
2022/05/15 03:53:43;;;;;;;12.38;2.85;;;14.30;66.00;;;;;;5094353;28;20036;-31
2022/05/15 03:56:10;;;;;;;10.35;3.50;;;14.30;66.10;;;;;;5093792;28;20084;-29
2022/05/15 03:58:37;;;;;;;12.50;2.95;;;14.30;66.20;;;;;;5093772;28;20044;-28
2022/05/15 04:01:05;;;;;;;9.05;3.08;;;14.30;66.20;;;;;;5093788;28;20503;-29
2022/05/15 04:03:31;;;;;;;12.90;3.28;;;14.30;66.20;;;;;;5093995;28;20019;-33
2022/05/15 04:05:57;;;;;;;13.32;3.17;;;14.30;66.30;;;;;;5094007;28;20085;-28
2022/05/15 04:08:23;;;;;;;11.38;2.83;;;14.30;66.30;;;;;;5094270;28;20016;-30
2022/05/15 04:10:49;;;;;;;10.18;2.97;;;14.30;66.30;;;;;;5093788;28;20039;-28
2022/05/15 04:13:15;;;;;;;14.77;3.30;;;14.30;66.30;;;;;;5093768;28;20028;-29
2022/05/15 04:15:41;;;;;;;18.27;3.53;;;14.40;66.40;;;;;;5093961;28;20028;-28
2022/05/15 04:18:09;;;;;;;10.32;3.08;;;14.30;66.30;;;;;;5093753;28;20381;-30
2022/05/15 04:20:34;;;;;;;11.85;2.88;;;14.40;66.40;;;;;;5093768;28;20495;-32
2022/05/15 04:23:00;;;;;;;12.98;3.30;;;14.30;66.40;;;;;;5093535;28;20021;-29
2022/05/15 04:25:26;;;;;;;10.40;3.28;;;14.30;66.40;;;;;;5093827;28;20489;-29
2022/05/15 04:27:52;;;;;;;9.45;2.72;;;14.30;66.50;;;;;;5093579;28;20016;-29
2022/05/15 04:30:23;;;;;;;10.05;3.17;;;14.30;66.50;;;;;;5093534;28;20111;-31
2022/05/15 04:32:51;;;;;;;10.25;3.05;;;14.40;66.60;;;;;;5093040;28;20051;-34
2022/05/15 04:35:18;;;;;;;9.18;2.70;;;14.40;66.50;;;;;;5093284;28;20023;-30
2022/05/15 04:37:44;;;;;;;10.10;3.00;;;14.40;66.50;;;;;;5093483;28;20027;-31
2022/05/15 04:40:11;;;;;;;11.73;2.92;;;14.40;66.60;;;;;;5093495;28;20024;-29
2022/05/15 04:42:37;;;;;;;9.07;2.40;;;14.40;66.60;;;;;;5093135;28;20072;-34
2022/05/15 04:45:04;;;;;;;9.00;3.08;;;14.40;66.60;;;;;;5093215;28;20027;-30
2022/05/15 04:47:29;;;;;;;11.90;3.05;;;14.50;66.60;;;;;;5093074;28;20475;-29
2022/05/15 04:49:56;;;;;;;10.43;2.97;;;14.50;66.60;;;;;;5092949;28;20020;-32
2022/05/15 04:52:22;;;;;;;10.43;2.55;;;14.50;66.50;;;;;;5093210;28;20020;-30
2022/05/15 04:54:48;;;;;;;8.07;2.65;;;14.50;66.60;;;;;;5092854;28;20448;-29
2022/05/15 04:57:13;;;;;;;9.90;2.85;;;14.50;66.60;;;;;;5092856;28;20036;-29
2022/05/15 04:59:39;;;;;;;11.98;2.45;;;14.50;66.50;;;;;;5092429;28;20008;-36
2022/05/15 05:02:04;;;;;;;11.48;3.20;;;14.50;66.50;;;;;;5092865;28;20086;-29
2022/05/15 05:04:30;;;;;;;8.15;2.40;;;14.50;66.50;;;;;;5092850;28;20073;-32
2022/05/15 05:06:56;;;;;;;12.35;2.85;;;14.60;66.50;;;;;;5093033;28;20523;-31
2022/05/15 05:09:21;;;;;;;9.52;2.78;;;14.60;66.50;;;;;;5092595;28;20494;-30
2022/05/15 05:11:47;;;;;;;11.45;3.15;;;14.60;66.50;;;;;;5092615;28;20020;-36
2022/05/15 05:14:13;;;;;;;8.77;2.50;;;14.60;66.50;;;;;;5092842;28;20016;-35
2022/05/15 05:16:39;;;;;;;8.60;2.90;;;14.70;66.50;;;;;;5092443;28;20055;-33
2022/05/15 05:19:04;;;;;;;9.30;3.13;;;14.70;66.40;;;;;;5092577;28;20020;-30
2022/05/15 05:21:30;;;;;;;13.25;3.17;;;14.70;66.40;;;;;;5092692;28;20024;-29
2022/05/15 05:23:56;;;;;;;9.38;3.15;;;14.80;66.40;;;;;;5092618;28;20023;-33
2022/05/15 05:26:22;;;;;;;8.63;2.63;;;14.80;66.40;;;;;;5092425;28;20028;-30
2022/05/15 05:28:48;;;;;;;10.75;2.85;;;14.80;66.40;;;;;;5092370;28;20110;-29
2022/05/15 05:31:14;;;;;;;10.68;3.17;;;14.80;66.40;;;;;;5092747;28;20032;-27
2022/05/15 05:33:39;;;;;;;8.88;2.90;;;14.80;66.40;;;;;;5091216;28;20016;-29
2022/05/15 05:36:06;;;;;;;10.30;3.40;;;14.80;66.30;;;;;;5092506;28;20460;-32
2022/05/15 05:38:32;;;;;;;10.90;2.90;;;14.80;66.30;;;;;;5092654;28;20019;-31
2022/05/15 05:40:58;;;;;;;11.45;2.92;;;14.90;66.40;;;;;;5092784;28;20064;-28
2022/05/15 05:43:23;;;;;;;10.73;3.42;;;14.90;66.30;;;;;;5092518;28;20022;-29
2022/05/15 05:45:49;;;;;;;12.85;3.25;;;14.90;66.30;;;;;;5092444;28;20055;-28
2022/05/15 05:48:14;;;;;;;8.25;2.80;;;15.00;66.30;;;;;;5092393;28;20024;-27
2022/05/15 05:50:40;;;;;;;10.35;3.42;;;15.00;66.30;;;;;;5092198;28;20472;-33
2022/05/15 05:53:06;;;;;;;7.35;2.72;;;15.00;66.30;;;;;;5092624;28;20020;-31
2022/05/15 05:55:32;;;;;;;9.00;3.00;;;15.00;66.20;;;;;;5092235;28;20024;-32
2022/05/15 05:57:58;;;;;;;8.90;2.83;;;15.10;66.30;;;;;;5092047;28;20519;-29
2022/05/15 06:00:28;;;;;;;11.93;3.17;;;15.10;66.80;;;;;;5092273;28;20020;-30
2022/05/15 06:04:39;;;;;;;10.02;2.88;;;15.10;66.10;;;;;;5092075;28;20021;-29
2022/05/15 06:05:40;;;;;;;9.07;3.05;;;15.10;66.10;;;;;;5092011;28;20376;-29
2022/05/15 06:08:06;;;;;;;11.15;3.00;;;15.20;66.00;;;;;;5091082;28;20395;-29
2022/05/15 06:10:31;;;;;;;8.77;2.80;;;15.20;66.00;;;;;;5093831;28;20035;-30
2022/05/15 06:12:57;;;;;;;8.95;2.83;;;15.30;65.90;;;;;;5096463;28;20525;-32
2022/05/15 06:15:22;;;;;;;9.85;2.78;;;15.30;65.90;;;;;;5096375;28;20027;-32
2022/05/15 06:17:48;;;;;;;7.28;2.63;;;15.30;65.80;;;;;;5096365;28;20026;-29
2022/05/15 06:20:13;;;;;;;8.75;2.83;;;15.40;65.80;;;;;;5096186;28;20468;-29
2022/05/15 06:22:39;;;;;;;9.20;2.65;;;15.40;65.80;;;;;;5095762;28;20016;-35
2022/05/15 06:25:05;;;;;;;8.30;3.10;;;15.40;65.70;;;;;;5096016;28;20024;-28
2022/05/15 06:27:31;;;;;;;9.65;3.30;;;15.50;65.70;;;;;;5095956;28;20099;-34
2022/05/15 06:29:58;;;;;;;9.32;2.75;;;15.50;65.50;;;;;;5096058;28;20057;-28
2022/05/15 06:32:25;;;;;;;10.05;3.15;;;15.60;65.50;;;;;;5096114;28;20042;-35
2022/05/15 06:34:50;;;;;;;8.20;3.03;;;15.60;65.40;;;;;;5095397;28;20035;-30
2022/05/15 06:37:16;;;;;;;11.40;3.33;;;15.70;65.40;;;;;;5095386;28;20058;-35
2022/05/15 06:39:42;;;;;;;9.50;3.47;;;15.70;65.40;;;;;;5095363;28;20066;-34
2022/05/15 06:42:08;;;;;;;8.55;3.08;;;15.70;65.30;;;;;;5095604;28;20020;-28
2022/05/15 06:44:33;;;;;;;13.57;3.10;;;15.80;65.30;;;;;;5095596;28;20031;-30
2022/05/15 06:46:59;;;;;;;9.90;3.20;;;15.80;65.10;;;;;;5095449;28;20020;-28
2022/05/15 06:49:25;;;;;;;9.55;3.58;;;15.90;65.10;;;;;;5095252;28;20012;-28
2022/05/15 06:51:50;;;;;;;11.15;3.25;;;16.00;65.00;;;;;;5095302;28;20032;-30
2022/05/15 06:54:16;;;;;;;10.15;3.45;;;16.00;64.90;;;;;;5095213;28;20046;-28
2022/05/15 06:59:26;;;;;;;8.50;3.33;;;16.10;64.80;;;;;;5095315;28;20051;-28
2022/05/15 07:01:51;;;;;;;11.60;3.60;;;16.10;64.70;;;;;;5095498;28;20028;-28
2022/05/15 07:04:17;;;;;;;10.25;3.00;;;16.20;64.70;;;;;;5095197;28;20031;-35
2022/05/15 07:06:43;;;;;;;10.32;3.15;;;16.20;64.50;;;;;;5095485;28;20025;-30
2022/05/15 07:09:08;;;;;;;7.25;3.10;;;16.30;64.50;;;;;;5095366;28;20095;-35
2022/05/15 07:11:34;;;;;;;11.93;3.55;;;16.30;64.30;;;;;;5095614;28;20028;-30
2022/05/15 07:13:59;;;;;;;11.43;3.50;;;16.40;64.40;;;;;;5095529;28;20020;-32
2022/05/15 07:16:25;;;;;;;11.45;3.50;;;16.40;64.30;;;;;;5095390;28;20462;-29
2022/05/15 07:18:51;;;;;;;9.63;3.42;;;16.50;64.20;;;;;;5095393;28;20487;-34
2022/05/15 07:21:16;;;;;;;9.60;2.95;;;16.60;64.20;;;;;;5094815;28;20049;-33
2022/05/15 07:23:42;;;;;;;8.98;3.17;;;16.70;64.10;;;;;;5095313;28;20020;-33
2022/05/15 07:26:08;;;;;;;8.15;3.38;;;16.70;64.00;;;;;;5094997;28;20024;-32
2022/05/15 07:28:33;;;;;;;10.05;3.47;;;16.80;63.90;;;;;;5094798;28;20486;-29
2022/05/15 07:30:59;;;;;;;6.78;3.00;;;16.80;64.50;;;;;;5094859;28;20069;-31
2022/05/15 07:33:27;;;;;;;8.25;3.20;;;16.90;63.70;;;;;;5094953;28;20382;-32
2022/05/15 07:35:55;;;;;;;10.98;3.92;;;17.00;63.70;;;;;;5094667;28;20086;-29
2022/05/15 07:38:21;;;;;;;10.68;3.70;;;17.00;63.60;;;;;;5094752;28;20103;-30
2022/05/15 07:40:47;;;;;;;10.23;3.55;;;17.10;63.50;;;;;;5094967;28;20059;-28
2022/05/15 07:43:13;;;;;;;9.20;3.72;;;17.20;63.40;;;;;;5094617;28;20432;-32
2022/05/15 07:45:39;;;;;;;8.70;3.60;;;17.30;63.30;;;;;;5094532;28;20020;-31
2022/05/15 07:48:06;;;;;;;9.48;3.28;;;17.40;63.20;;;;;;5094481;28;20024;-32
2022/05/15 07:50:33;;;;;;;10.02;3.55;;;17.40;63.10;;;;;;5094500;28;20072;-35
2022/05/15 07:52:59;;;;;;;8.07;3.47;;;17.50;63.00;;;;;;5094546;28;20028;-29
2022/05/15 07:55:24;;;;;;;11.07;3.65;;;17.60;62.90;;;;;;5094502;28;20031;-30
2022/05/15 07:57:50;;;;;;;10.45;3.78;;;17.70;62.80;;;;;;5094279;28;20062;-30
2022/05/15 08:00:16;;;;;;;8.95;3.35;;;17.80;62.70;;;;;;5094668;28;20456;-35
2022/05/15 08:02:43;;;;;;;9.65;3.85;;;17.90;62.60;;;;;;5094485;28;20027;-30
2022/05/15 08:08:05;;;;;;;7.72;3.80;;;18.00;62.30;;;;;;5094493;28;20039;-37
2022/05/15 08:10:37;;;;;;;9.32;3.58;;;18.10;62.20;;;;;;5094694;28;20031;-29
2022/05/15 08:13:03;;;;;;;10.02;3.50;;;18.30;62.10;;;;;;5094124;28;20387;-36
2022/05/15 08:15:30;;;;;;;10.80;3.70;;;18.30;61.90;;;;;;5094293;28;20020;-29
2022/05/15 08:17:56;;;;;;;10.88;3.78;;;18.40;61.70;;;;;;5094243;28;20020;-33
2022/05/15 08:25:50;;;;;;;8.55;3.60;;;18.60;61.40;;;;;;5094097;28;20108;-30
2022/05/15 08:28:16;;;;;;;8.48;3.78;;;18.80;61.30;;;;;;5094137;28;20107;-29
2022/05/15 08:30:42;;;;;;;7.03;3.53;;;18.80;61.10;;;;;;5093853;28;20095;-29
2022/05/15 08:33:10;;;;;;;9.55;3.53;;;18.90;61.00;;;;;;5093143;28;20059;-32
2022/05/15 08:35:35;;;;;;;7.80;3.67;;;19.00;60.60;;;;;;5093485;28;20103;-28
2022/05/15 08:38:01;;;;;;;8.25;3.78;;;19.10;60.50;;;;;;5094017;28;20095;-30
2022/05/15 08:40:34;;;;;;;12.77;3.80;;;19.20;60.30;;;;;;5093818;28;20022;-32
2022/05/15 08:43:03;;;;;;;7.82;3.42;;;19.30;60.10;;;;;;5094275;28;20035;-30
2022/05/15 08:45:35;;;;;;;6.63;3.60;;;19.30;59.90;;;;;;5093740;28;20102;-31
2022/05/15 08:48:12;;;;;;;10.27;3.90;;;19.40;59.90;;;;;;5093634;28;20479;-33
2022/05/15 08:50:48;;;;;;;6.93;3.22;;;19.40;59.80;;;;;;5093533;28;20107;-35
2022/05/15 08:53:35;;;;;;;8.25;3.70;;;19.50;59.70;;;;;;5093487;28;20488;-33
2022/05/15 08:56:08;;;;;;;7.75;3.45;;;19.50;59.60;;;;;;5093334;28;20387;-35
2022/05/15 08:58:43;;;;;;;8.50;3.20;;;19.70;59.60;;;;;;5092584;28;20532;-29
2022/05/15 09:01:13;;;;;;;8.30;3.50;;;19.80;59.40;;;;;;5092751;28;20505;-33
2022/05/15 09:03:38;;;;;;;5.68;2.90;;;19.90;59.20;;;;;;5092603;28;20023;-41
2022/05/15 09:06:48;;;;;;;8.23;3.17;;;19.90;59.10;;;;;;5092493;28;20483;-34
2022/05/15 09:09:24;;;;;;;8.35;2.80;;;20.00;59.00;;;;;;5092432;28;20056;-29
2022/05/15 09:12:11;;;;;;;8.45;2.97;;;20.10;58.90;;;;;;5092740;28;20051;-31
2022/05/15 09:14:56;;;;;;;9.07;3.03;;;20.20;58.70;;;;;;5092021;28;20130;-29
2022/05/15 09:17:44;;;;;;;7.38;3.20;;;20.30;58.50;;;;;;5092216;28;20479;-31
2022/05/15 09:20:16;;;;;;;8.02;3.28;;;20.40;58.20;;;;;;5090408;28;20028;-29
2022/05/15 09:22:46;;;;;;;8.70;3.22;;;20.50;58.10;;;;;;5091967;28;20467;-28
2022/05/15 09:25:21;;;;;;;7.72;2.97;;;20.60;58.10;;;;;;5091836;28;20019;-30
2022/05/15 09:28:12;;;;;;;7.63;2.65;;;20.60;57.40;;;;;;5091851;28;20028;-29
2022/05/15 09:30:46;;;;;;;8.18;2.88;;;20.70;57.40;;;;;;5091623;28;20103;-30
2022/05/15 09:33:34;;;;;;;8.60;2.70;;;20.70;57.30;;;;;;5090325;28;20115;-31
2022/05/15 09:36:28;;;;;;;7.72;2.40;;;20.80;57.40;;;;;;5091737;28;20020;-33
2022/05/15 09:39:16;;;;;;;7.78;2.50;;;20.90;57.20;;;;;;5091740;28;20032;-31
2022/05/15 09:44:35;;;;;;;6.20;2.30;;;21.10;56.30;;;;;;5090759;28;20082;-33
2022/05/15 09:47:20;;;;;;;6.38;2.17;;;21.20;55.80;;;;;;5091726;28;20024;-35
2022/05/15 09:49:46;;;;;;;7.45;2.63;;;21.30;55.50;;;;;;5091386;28;20031;-34
2022/05/15 09:52:21;;;;;;;7.72;2.60;;;21.40;55.20;;;;;;5091434;28;20026;-38
2022/05/15 09:54:49;;;;;;;4.55;2.15;;;21.40;54.60;;;;;;5091354;28;20023;-33
2022/05/15 09:57:17;;;;;;;5.77;2.50;;;21.50;53.90;;;;;;5054122;28;1056417;-34
2022/05/15 09:59:50;;;;;;;5.13;2.47;;;21.50;53.70;;;;;;5092158;28;20024;-30
2022/05/15 10:02:23;;;;;;;6.95;2.50;;;21.60;53.60;;;;;;5092436;28;20024;-31
2022/05/15 10:04:50;;;;;;;6.45;2.10;;;21.60;53.70;;;;;;5092508;28;20039;-32
2022/05/15 10:07:44;;;;;;;10.18;3.00;;;21.70;53.70;;;;;;5092221;28;20034;-32
2022/05/15 10:10:45;;;;;;;7.93;2.80;;;21.80;53.10;;;;;;5092006;28;20024;-33
2022/05/15 10:13:38;;;;;;;7.82;2.80;;;21.80;53.00;;;;;;5074715;28;20036;-32
2022/05/15 10:16:06;;;;;;;9.02;3.20;;;21.80;52.80;;;;;;5083983;28;20043;-32
2022/05/15 10:18:53;;;;;;;6.30;2.78;;;21.80;53.10;;;;;;5090743;28;20086;-34
2022/05/15 10:21:22;;;;;;;7.45;2.80;;;21.80;53.10;;;;;;5092331;28;20480;-35
2022/05/15 10:23:57;;;;;;;7.93;2.63;;;21.90;52.90;;;;;;5092353;28;20035;-32
2022/05/15 10:26:45;;;;;;;6.03;2.80;;;22.00;52.90;;;;;;5092079;28;20043;-32
2022/05/15 10:29:40;;;;;;;5.68;2.58;;;22.10;52.70;;;;;;5091923;28;20111;-34
2022/05/15 10:32:29;;;;;;;5.10;2.00;;;22.20;52.30;;;;;;5092233;28;20032;-35
2022/05/15 10:34:56;;;;;;;5.63;2.10;;;22.30;52.10;;;;;;5091759;28;20039;-32
2022/05/15 10:37:59;;;;;;;5.68;2.40;;;22.30;51.60;;;;;;5091612;28;20095;-32
2022/05/15 10:40:40;;;;;;;5.85;2.00;;;22.40;51.40;;;;;;5091380;28;20028;-31
2022/05/15 10:43:06;;;;;;;8.15;2.80;;;22.40;51.30;;;;;;5092176;28;20082;-38
2022/05/15 10:45:51;;;;;;;9.35;2.00;;;22.50;50.50;;;;;;5091983;28;20031;-33
2022/05/15 10:48:46;;;;;;;6.15;2.20;;;22.60;50.30;;;;;;5091892;28;20032;-36
2022/05/15 10:51:24;;;;;;;5.50;2.00;;;22.60;49.60;;;;;;5092158;28;20036;-32
2022/05/15 10:57:22;;;;;;;8.52;1.80;;;22.80;49.00;;;;;;5093367;28;20058;-37
2022/05/15 10:59:59;;;;;;;4.88;2.08;;;22.90;48.80;;;;;;5095598;28;20036;-36
2022/05/15 11:02:43;;;;;;;4.82;1.80;;;22.90;48.50;;;;;;5095141;28;20340;-34
2022/05/15 11:05:28;;;;;;;5.90;1.85;;;23.00;48.30;;;;;;5095394;28;20024;-33
2022/05/15 11:08:19;;;;;;;6.82;1.85;;;23.10;48.00;;;;;;5095181;28;20027;-36
2022/05/15 11:10:55;;;;;;;6.03;2.38;;;23.20;47.90;;;;;;5095552;28;20097;-38
2022/05/15 11:13:30;;;;;;;6.43;2.10;;;23.30;47.50;;;;;;5095022;28;20024;-36
2022/05/15 11:16:18;;;;;;;6.90;2.10;;;23.30;47.40;;;;;;5094977;28;20036;-47
2022/05/15 11:19:18;;;;;;;9.82;2.28;;;23.30;47.40;;;;;;5095064;28;20491;-33
2022/05/15 11:21:50;;;;;;;5.85;1.75;;;23.40;47.20;;;;;;5095119;28;20028;-32
2022/05/15 11:24:34;;;;;;;7.65;1.88;;;23.40;47.20;;;;;;5095112;28;20399;-37
2022/05/15 11:27:15;;;;;;;5.45;1.73;;;23.50;47.00;;;;;;5095427;28;20562;-36
2022/05/15 11:29:46;;;;;;;5.78;2.00;;;23.50;46.80;;;;;;5094806;28;20020;-33
2022/05/15 11:32:28;;;;;;;7.90;1.80;;;23.60;45.90;;;;;;5095647;28;20099;-33
2022/05/15 11:35:13;;;;;;;12.48;2.15;;;23.60;46.10;;;;;;5094827;28;20020;-35
2022/05/15 11:37:38;;;;;;;7.18;1.90;;;23.70;45.70;;;;;;5094893;28;20107;-34
2022/05/15 11:40:09;;;;;;;5.45;2.35;;;23.70;45.80;;;;;;5095160;28;20373;-33
2022/05/15 11:42:35;;;;;;;6.22;1.92;;;23.80;45.60;;;;;;5094745;28;20468;-35
2022/05/15 11:45:32;;;;;;;8.77;2.50;;;23.90;45.70;;;;;;5094858;28;20039;-34
2022/05/15 11:48:17;;;;;;;5.55;2.22;;;23.90;44.60;;;;;;5094379;28;20044;-35
2022/05/15 11:51:02;;;;;;;7.68;2.20;;;24.00;45.20;;;;;;5094547;28;20107;-33
2022/05/15 11:53:54;;;;;;;4.85;2.20;;;24.00;45.10;;;;;;5094596;28;20376;-39
2022/05/15 11:56:24;;;;;;;5.05;1.92;;;24.10;44.80;;;;;;5085067;28;20048;-34
2022/05/15 11:58:59;;;;;;;5.18;1.70;;;24.10;44.90;;;;;;5094283;28;20044;-37
2022/05/15 12:01:25;;;;;;;7.97;2.22;;;24.20;44.70;;;;;;5094592;28;20452;-39
2022/05/15 12:03:59;;;;;;;5.45;1.80;;;24.30;44.60;;;;;;5094168;28;20024;-35
2022/05/15 12:06:31;;;;;;;6.00;1.58;;;24.50;44.30;;;;;;5094170;28;20393;-34
2022/05/15 12:09:17;;;;;;;4.63;1.92;;;24.50;44.20;;;;;;5093041;28;20039;-36
2022/05/15 12:11:48;;;;;;;4.57;1.92;;;24.60;43.90;;;;;;5093925;28;20028;-33
2022/05/15 12:14:22;;;;;;;6.97;2.17;;;24.60;43.80;;;;;;5093912;28;20089;-37
2022/05/15 12:17:29;;;;;;;5.25;1.92;;;24.70;43.50;;;;;;5093976;28;20051;-35
2022/05/15 12:20:10;;;;;;;5.25;1.70;;;24.70;43.20;;;;;;5093928;28;20038;-36
2022/05/15 12:22:44;;;;;;;5.22;1.77;;;24.80;43.20;;;;;;5093666;28;20024;-35
2022/05/15 12:25:14;;;;;;;3.95;1.52;;;24.80;42.90;;;;;;5094047;28;20035;-37
2022/05/15 12:31:10;;;;;;;5.47;1.75;;;25.00;42.70;;;;;;5093645;28;20043;-36
2022/05/15 12:33:40;;;;;;;3.72;1.73;;;25.10;42.70;;;;;;5093591;28;20036;-32
2022/05/15 12:36:32;;;;;;;4.47;1.70;;;25.20;42.30;;;;;;5093724;28;20020;-35
2022/05/15 12:38:57;;;;;;;2.75;1.50;;;25.20;41.90;;;;;;5093876;28;20107;-31
2022/05/15 12:41:32;;;;;;;4.00;1.63;;;25.30;41.50;;;;;;5093500;28;20066;-35
2022/05/15 12:44:00;;;;;;;4.78;1.60;;;25.40;40.80;;;;;;5093717;28;20036;-36
2022/05/15 12:46:37;;;;;;;5.00;1.30;;;25.40;40.70;;;;;;5093942;28;20046;-34
2022/05/15 12:49:05;;;;;;;3.55;1.67;;;25.60;40.40;;;;;;5093314;28;20028;-35
2022/05/15 12:51:40;;;;;;;6.25;1.45;;;25.70;40.30;;;;;;5093293;28;20066;-30
2022/05/15 12:54:29;;;;;;;6.20;1.75;;;25.90;40.10;;;;;;5093317;28;20032;-32
2022/05/15 12:57:03;;;;;;;4.50;1.45;;;26.10;39.50;;;;;;5093410;28;20035;-30
2022/05/15 12:59:33;;;;;;;3.30;1.80;;;26.30;39.50;;;;;;5093577;28;20495;-30
2022/05/15 13:02:14;;;;;;;4.25;1.60;;;26.40;39.40;;;;;;5093254;28;20091;-30
2022/05/15 13:04:47;;;;;;;2.75;1.30;;;26.60;39.30;;;;;;5093066;28;20371;-29
2022/05/15 13:07:13;;;;;;;4.03;1.20;;;26.80;39.30;;;;;;5093328;28;20035;-29
2022/05/15 13:09:39;;;;;;;3.20;1.48;;;27.00;39.00;;;;;;5093133;28;20032;-29
2022/05/15 13:12:07;;;;;;;4.28;1.50;;;27.10;38.90;;;;;;5093024;28;20020;-29
2022/05/15 13:14:39;;;;;;;4.20;1.55;;;27.30;38.70;;;;;;5093112;28;20024;-32
2022/05/15 13:17:07;;;;;;;3.95;1.60;;;27.40;38.40;;;;;;5092911;28;20077;-28
2022/05/15 13:19:46;;;;;;;3.92;1.50;;;27.50;38.10;;;;;;5091603;28;20065;-29
2022/05/15 13:22:23;;;;;;;3.10;1.30;;;27.60;37.80;;;;;;5092745;28;20060;-28
2022/05/15 13:24:54;;;;;;;4.57;1.60;;;27.70;37.10;;;;;;5092739;28;20333;-28